Time;durP1;ratioP1;P1;durP2;ratioP2;P2;SDS_P1;SDS_P2;PMS_P1;PMS_P2;Temp;Humidity;BMP_temperature;BMP_pressure;BME280_temperature;BME280_humidity;BME280_pressure;Samples;Min_cycle;Max_cycle;Signal;HPM_P1;HPM_P2
2021/12/15 00:01:23;;;;;;;28.47;14.90;;;8.60;99.90;;;;;;5093076;28;20417;-84
2021/12/15 00:03:49;;;;;;;25.43;15.77;;;8.70;99.90;;;;;;5091799;28;20421;-84
2021/12/15 00:06:18;;;;;;;31.60;15.53;;;8.70;99.90;;;;;;5093007;28;20418;-85
2021/12/15 00:08:48;;;;;;;26.10;15.07;;;8.70;99.90;;;;;;5091408;28;20534;-84
2021/12/15 00:11:14;;;;;;;29.20;14.87;;;8.70;99.90;;;;;;5092995;28;20417;-83
2021/12/15 00:13:41;;;;;;;28.63;15.30;;;8.70;99.90;;;;;;5093055;28;20533;-83
2021/12/15 00:16:08;;;;;;;29.57;15.27;;;8.70;99.90;;;;;;5092841;28;20466;-83
2021/12/15 00:18:35;;;;;;;29.63;15.83;;;8.70;99.90;;;;;;5083234;28;20440;-84
2021/12/15 00:21:03;;;;;;;25.70;14.37;;;8.70;99.90;;;;;;5092848;28;20432;-83
2021/12/15 00:23:30;;;;;;;30.67;14.77;;;8.70;99.90;;;;;;5091203;28;20988;-83
2021/12/15 00:25:56;;;;;;;31.60;16.20;;;8.80;99.90;;;;;;5091263;28;20430;-83
2021/12/15 00:28:21;;;;;;;32.57;14.83;;;8.70;99.90;;;;;;5087538;28;20437;-83
2021/12/15 00:30:47;;;;;;;31.63;17.10;;;8.70;99.90;;;;;;5091511;28;20269;-84
2021/12/15 00:33:13;;;;;;;31.80;14.60;;;8.70;99.90;;;;;;5092724;28;20259;-84
2021/12/15 00:35:38;;;;;;;36.20;17.97;;;8.70;99.90;;;;;;5092690;28;20179;-83
2021/12/15 00:38:06;;;;;;;34.13;16.67;;;8.70;99.90;;;;;;5090918;28;20219;-84
2021/12/15 00:40:32;;;;;;;24.00;14.53;;;8.70;99.90;;;;;;5094966;28;20547;-85
2021/12/15 00:42:58;;;;;;;31.87;14.80;;;8.70;99.90;;;;;;5096273;28;20417;-83
2021/12/15 00:45:24;;;;;;;30.57;16.57;;;8.70;99.90;;;;;;5096187;28;20453;-83
2021/12/15 00:47:51;;;;;;;32.80;14.77;;;8.70;99.90;;;;;;5096305;28;20414;-83
2021/12/15 00:50:19;;;;;;;31.53;15.03;;;8.70;99.90;;;;;;5096225;28;20428;-84
2021/12/15 00:52:46;;;;;;;31.33;14.87;;;8.70;99.90;;;;;;5095775;28;20563;-84
2021/12/15 00:55:18;;;;;;;29.60;14.87;;;8.70;99.90;;;;;;5096108;28;20415;-84
2021/12/15 00:57:44;;;;;;;28.43;13.90;;;8.70;99.90;;;;;;5096144;28;20767;-84
2021/12/15 01:00:16;;;;;;;30.63;15.37;;;8.70;99.90;;;;;;5095983;28;20432;-84
2021/12/15 01:02:42;;;;;;;26.60;12.53;;;8.70;99.90;;;;;;5094585;28;20784;-84
2021/12/15 01:05:09;;;;;;;26.07;13.27;;;8.80;99.90;;;;;;5095845;28;20421;-84
2021/12/15 01:07:36;;;;;;;30.97;13.80;;;8.70;99.90;;;;;;5095687;28;20175;-84
2021/12/15 01:10:04;;;;;;;29.63;14.47;;;8.70;99.90;;;;;;5095884;28;20413;-84
2021/12/15 01:20:53;;;;;;;23.33;12.13;;;8.80;99.90;;;;;;5095924;28;20409;-86
2021/12/15 01:23:22;;;;;;;26.67;14.20;;;8.80;99.90;;;;;;5095331;28;20771;-86
2021/12/15 01:25:52;;;;;;;20.33;11.97;;;8.80;99.90;;;;;;5095697;28;20417;-86
2021/12/15 01:28:18;;;;;;;25.17;12.07;;;8.80;99.90;;;;;;5095524;28;20485;-86
2021/12/15 01:30:46;;;;;;;22.90;12.00;;;8.80;99.90;;;;;;5095449;28;20491;-87
2021/12/15 01:33:13;;;;;;;25.00;12.87;;;8.80;99.90;;;;;;5095321;28;20504;-85
2021/12/15 01:35:43;;;;;;;24.20;12.23;;;8.80;99.90;;;;;;5095349;28;20893;-86
2021/12/15 01:38:09;;;;;;;20.57;9.60;;;8.80;99.90;;;;;;5094972;28;20453;-85
2021/12/15 01:40:38;;;;;;;23.37;13.00;;;8.80;99.90;;;;;;5095203;28;20510;-86
2021/12/15 01:43:19;;;;;;;20.93;10.73;;;8.80;99.90;;;;;;5094044;28;20179;-86
2021/12/15 01:48:35;;;;;;;23.53;11.90;;;8.80;99.90;;;;;;5095444;28;20537;-86
2021/12/15 01:51:02;;;;;;;18.90;11.60;;;8.80;99.90;;;;;;5094964;28;20417;-85
2021/12/15 01:53:28;;;;;;;23.80;11.60;;;8.80;99.90;;;;;;5094515;28;20560;-84
2021/12/15 01:55:54;;;;;;;22.77;11.60;;;8.80;99.90;;;;;;5095090;28;20742;-84
2021/12/15 01:58:20;;;;;;;23.43;11.60;;;8.80;99.90;;;;;;5094970;28;20414;-84
2021/12/15 02:00:49;;;;;;;26.13;13.20;;;8.80;99.90;;;;;;5094993;28;20174;-84
2021/12/15 02:03:16;;;;;;;20.33;12.10;;;8.80;99.90;;;;;;5094868;28;20413;-84
2021/12/15 02:05:42;;;;;;;21.57;12.67;;;8.80;99.90;;;;;;5094796;28;20410;-85
2021/12/15 02:08:08;;;;;;;23.30;11.90;;;8.80;99.90;;;;;;5094365;28;20418;-85
2021/12/15 02:10:37;;;;;;;22.30;12.03;;;8.80;99.90;;;;;;5093375;28;20417;-84
2021/12/15 02:13:06;;;;;;;23.80;12.93;;;8.80;99.90;;;;;;5094533;28;20535;-84
2021/12/15 02:15:36;;;;;;;26.10;14.83;;;8.80;99.90;;;;;;5094721;28;20414;-85
2021/12/15 02:18:04;;;;;;;23.50;12.90;;;8.80;99.90;;;;;;5094635;28;20413;-84
2021/12/15 02:20:37;;;;;;;24.80;11.93;;;8.80;99.90;;;;;;5093192;28;20438;-85
2021/12/15 02:23:04;;;;;;;23.80;13.70;;;8.80;99.90;;;;;;5094041;28;20441;-84
2021/12/15 02:25:31;;;;;;;20.83;12.57;;;8.80;99.90;;;;;;5094416;28;20462;-84
2021/12/15 02:27:57;;;;;;;26.27;13.70;;;8.80;99.90;;;;;;5094372;28;20777;-84
2021/12/15 02:30:46;;;;;;;23.10;14.17;;;8.80;99.90;;;;;;5093053;28;20421;-84
2021/12/15 02:38:35;;;;;;;30.90;14.17;;;8.90;99.90;;;;;;5093755;28;20448;-84
2021/12/15 02:41:09;;;;;;;26.13;13.20;;;8.90;99.90;;;;;;5094193;28;20844;-86
2021/12/15 02:43:35;;;;;;;29.10;14.60;;;8.90;99.90;;;;;;5093992;28;20956;-85
2021/12/15 02:46:01;;;;;;;29.30;15.47;;;8.90;99.90;;;;;;5093982;28;20960;-87
2021/12/15 02:48:26;;;;;;;23.30;13.13;;;8.90;99.90;;;;;;5092618;28;20449;-87
2021/12/15 02:50:52;;;;;;;29.07;15.03;;;8.90;99.90;;;;;;5093981;28;20186;-85
2021/12/15 02:53:18;;;;;;;25.53;16.30;;;8.90;99.90;;;;;;5093398;28;20215;-87
2021/12/15 02:55:44;;;;;;;32.83;15.90;;;8.90;99.90;;;;;;5092646;28;20216;-86
2021/12/15 02:58:10;;;;;;;23.97;14.37;;;8.80;99.90;;;;;;5092626;28;20186;-87
2021/12/15 03:00:52;;;;;;;28.60;15.60;;;8.80;99.90;;;;;;5073740;28;20612;-87
2021/12/15 03:04:03;;;;;;;32.20;15.97;;;8.70;99.90;;;;;;5073232;28;20910;-86
2021/12/15 03:06:32;;;;;;;29.13;15.97;;;8.60;99.90;;;;;;5073066;28;20433;-85
2021/12/15 03:15:20;;;;;;;33.33;16.20;;;8.70;99.90;;;;;;5073432;28;20475;-85
2021/12/15 03:17:21;;;;;;;33.63;16.30;;;8.80;99.90;;;;;;5073191;28;20491;-87
2021/12/15 03:19:47;;;;;;;30.10;17.07;;;8.80;99.90;;;;;;5073347;28;20413;-87
2021/12/15 03:22:13;;;;;;;37.10;18.13;;;8.80;99.90;;;;;;5071818;28;20171;-86
2021/12/15 03:24:38;;;;;;;34.93;16.77;;;8.90;99.90;;;;;;5073279;28;20167;-85
2021/12/15 03:27:10;;;;;;;36.00;17.80;;;8.90;99.90;;;;;;5073166;28;20254;-87
2021/12/15 03:37:40;;;;;;;34.07;16.97;;;9.00;99.90;;;;;;5072618;28;20446;-88
2021/12/15 03:40:05;;;;;;;41.57;18.97;;;9.00;99.90;;;;;;5072158;28;20781;-86
2021/12/15 03:42:36;;;;;;;39.83;18.20;;;9.00;99.90;;;;;;5073287;28;20409;-88
2021/12/15 03:45:06;;;;;;;37.87;19.13;;;9.00;99.90;;;;;;5073107;28;20169;-87
2021/12/15 03:47:34;;;;;;;35.90;17.40;;;9.00;99.90;;;;;;5073008;28;20439;-87
2021/12/15 03:50:04;;;;;;;35.60;17.20;;;9.00;99.90;;;;;;5073134;28;20415;-87
2021/12/15 03:52:30;;;;;;;32.77;17.40;;;9.00;99.90;;;;;;5072499;28;20406;-88
2021/12/15 03:54:56;;;;;;;37.83;19.37;;;9.00;99.90;;;;;;5073039;28;20460;-85
2021/12/15 03:57:22;;;;;;;36.00;17.43;;;9.10;99.90;;;;;;5072985;28;20220;-88
2021/12/15 03:59:48;;;;;;;32.97;18.07;;;9.10;99.90;;;;;;5072906;28;20255;-87
2021/12/15 04:02:18;;;;;;;32.83;15.50;;;9.10;99.90;;;;;;5072949;28;20418;-88
2021/12/15 04:04:44;;;;;;;36.10;16.90;;;9.20;99.90;;;;;;5071681;28;20786;-88
2021/12/15 04:07:12;;;;;;;40.00;17.10;;;9.10;99.90;;;;;;5072742;28;20932;-87
2021/12/15 04:09:38;;;;;;;36.73;17.87;;;9.10;99.90;;;;;;5072795;28;20411;-87
2021/12/15 04:12:05;;;;;;;45.53;19.00;;;9.20;99.90;;;;;;5072786;28;20410;-88
2021/12/15 04:14:41;;;;;;;31.23;15.20;;;9.20;99.90;;;;;;5074750;28;20483;-88
2021/12/15 04:17:17;;;;;;;41.47;17.10;;;9.20;99.90;;;;;;5076613;28;20494;-88
2021/12/15 04:19:43;;;;;;;37.40;16.77;;;9.20;99.90;;;;;;5076689;28;20414;-87
2021/12/15 04:22:10;;;;;;;33.33;15.17;;;9.20;99.90;;;;;;5076225;28;20410;-87
2021/12/15 04:24:35;;;;;;;29.60;15.77;;;9.20;99.90;;;;;;5076562;28;20168;-86
2021/12/15 04:27:03;;;;;;;31.73;15.80;;;9.20;99.90;;;;;;5075367;28;20468;-88
2021/12/15 04:29:29;;;;;;;32.57;16.20;;;9.20;99.90;;;;;;5075277;28;20211;-88
2021/12/15 04:32:06;;;;;;;32.03;16.53;;;9.20;99.90;;;;;;5076438;28;20874;-88
2021/12/15 04:34:32;;;;;;;32.97;16.57;;;9.20;99.90;;;;;;5076253;28;20821;-86
2021/12/15 04:36:58;;;;;;;36.00;16.93;;;9.20;99.90;;;;;;5075802;28;20497;-87
2021/12/15 04:39:27;;;;;;;38.07;16.90;;;9.30;99.90;;;;;;5074353;28;20689;-87
2021/12/15 04:41:54;;;;;;;30.67;14.00;;;9.30;99.90;;;;;;5074931;28;20752;-86
2021/12/15 04:44:23;;;;;;;35.07;16.60;;;9.30;99.90;;;;;;5075097;28;20818;-84
2021/12/15 04:46:59;;;;;;;37.50;15.57;;;9.30;99.90;;;;;;5075454;28;20457;-86
2021/12/15 04:49:28;;;;;;;32.33;16.67;;;9.30;99.90;;;;;;5076024;28;20425;-86
2021/12/15 04:51:53;;;;;;;34.37;14.93;;;9.30;99.90;;;;;;5075601;28;20426;-87
2021/12/15 04:54:19;;;;;;;33.97;15.27;;;9.30;99.90;;;;;;5075866;28;20465;-85
2021/12/15 04:56:46;;;;;;;33.53;15.87;;;9.30;99.90;;;;;;5075947;28;20221;-86
2021/12/15 04:59:12;;;;;;;34.63;16.17;;;9.30;99.90;;;;;;5075848;28;20918;-85
2021/12/15 05:01:38;;;;;;;39.80;16.40;;;9.30;99.90;;;;;;5075798;28;20414;-88
2021/12/15 05:04:04;;;;;;;38.40;17.20;;;9.30;99.90;;;;;;5075879;28;20911;-86
2021/12/15 05:06:30;;;;;;;35.27;15.33;;;9.30;99.90;;;;;;5075482;28;20166;-86
2021/12/15 05:08:56;;;;;;;35.57;16.20;;;9.30;99.90;;;;;;5074586;28;20181;-86
2021/12/15 05:11:21;;;;;;;32.83;15.27;;;9.30;99.90;;;;;;5075777;28;20753;-86
2021/12/15 05:13:47;;;;;;;36.97;15.80;;;9.30;99.90;;;;;;5075536;28;20243;-86
2021/12/15 05:16:16;;;;;;;32.57;16.40;;;9.20;99.90;;;;;;5074431;28;20169;-85
2021/12/15 05:18:42;;;;;;;30.87;15.67;;;9.40;99.90;;;;;;5075754;28;20175;-85
2021/12/15 05:21:09;;;;;;;35.67;15.80;;;9.30;99.90;;;;;;5075129;28;20406;-85
2021/12/15 05:23:34;;;;;;;40.33;16.93;;;9.30;99.90;;;;;;5075419;28;20412;-85
2021/12/15 05:26:01;;;;;;;36.37;15.47;;;9.30;99.90;;;;;;5073726;28;20429;-86
2021/12/15 05:28:27;;;;;;;29.90;14.30;;;9.30;99.90;;;;;;5075328;28;20200;-85
2021/12/15 05:30:56;;;;;;;38.67;17.97;;;9.30;99.90;;;;;;5075263;28;20456;-86
2021/12/15 05:33:21;;;;;;;39.13;15.97;;;9.30;99.90;;;;;;5075202;28;20481;-86
2021/12/15 05:35:48;;;;;;;37.93;17.97;;;9.30;99.90;;;;;;5074894;28;20404;-85
2021/12/15 05:38:13;;;;;;;31.63;15.03;;;9.30;99.90;;;;;;5074910;28;20466;-85
2021/12/15 05:40:39;;;;;;;37.50;15.97;;;9.30;99.90;;;;;;5075008;28;20415;-85
2021/12/15 05:43:06;;;;;;;39.40;17.60;;;9.30;99.90;;;;;;5075020;28;20277;-86
2021/12/15 05:45:35;;;;;;;34.07;16.03;;;9.30;99.90;;;;;;5075377;28;20176;-86
2021/12/15 05:48:02;;;;;;;37.77;16.90;;;9.30;99.90;;;;;;5094058;28;20894;-86
2021/12/15 05:50:29;;;;;;;41.47;16.87;;;9.30;99.90;;;;;;5093287;28;20434;-86
2021/12/15 05:52:56;;;;;;;47.40;19.03;;;9.30;99.90;;;;;;5094093;28;20464;-88
2021/12/15 05:55:24;;;;;;;41.90;18.13;;;9.40;99.90;;;;;;5094619;28;20505;-88
2021/12/15 05:57:50;;;;;;;44.33;17.90;;;9.30;99.90;;;;;;5093485;28;20413;-88
2021/12/15 06:00:20;;;;;;;44.33;19.07;;;9.40;99.90;;;;;;5094488;28;20416;-88
2021/12/15 06:02:46;;;;;;;43.50;19.20;;;9.40;99.90;;;;;;5094610;28;20410;-88
2021/12/15 06:05:12;;;;;;;39.10;19.10;;;9.40;99.90;;;;;;5094546;28;20410;-88
2021/12/15 06:07:39;;;;;;;49.30;21.83;;;9.40;99.90;;;;;;5093945;28;20411;-88
2021/12/15 06:10:07;;;;;;;46.77;18.37;;;9.40;99.90;;;;;;5093142;28;20426;-88
2021/12/15 06:12:33;;;;;;;61.13;21.43;;;9.40;99.90;;;;;;5093077;28;20410;-89
2021/12/15 06:14:58;;;;;;;48.73;20.90;;;9.40;99.90;;;;;;5094948;28;20767;-87
2021/12/15 06:17:26;;;;;;;64.03;22.27;;;9.40;99.90;;;;;;5094462;28;20177;-87
2021/12/15 06:19:53;;;;;;;56.07;22.10;;;9.40;99.90;;;;;;5094472;28;20228;-88
2021/12/15 06:22:24;;;;;;;51.30;21.23;;;9.40;99.90;;;;;;5094019;28;20441;-88
2021/12/15 06:24:51;;;;;;;52.60;21.40;;;9.40;99.90;;;;;;5094362;28;20414;-88
2021/12/15 06:27:19;;;;;;;67.47;23.47;;;9.50;99.90;;;;;;5094224;28;20743;-87
2021/12/15 06:29:45;;;;;;;67.23;26.50;;;9.50;99.90;;;;;;5094767;28;20422;-87
2021/12/15 06:32:11;;;;;;;63.87;25.23;;;9.50;99.90;;;;;;5094149;28;20466;-86
2021/12/15 06:34:37;;;;;;;63.77;24.33;;;9.40;99.90;;;;;;5105050;28;20469;-86
2021/12/15 06:37:03;;;;;;;59.37;24.83;;;9.50;99.90;;;;;;5101178;28;20411;-87
2021/12/15 06:39:30;;;;;;;73.90;27.23;;;9.50;99.90;;;;;;5102266;28;20216;-87
2021/12/15 06:41:56;;;;;;;54.47;23.90;;;9.50;99.90;;;;;;5099976;28;20496;-87
2021/12/15 06:44:21;;;;;;;52.80;23.63;;;9.50;99.90;;;;;;5095711;28;20414;-84
2021/12/15 07:00:19;;;;;;;63.50;25.10;;;9.60;99.90;;;;;;5092727;28;20427;-87
2021/12/15 07:02:45;;;;;;;70.47;24.77;;;9.60;99.90;;;;;;5090769;28;20460;-86
2021/12/15 07:05:11;;;;;;;61.77;26.00;;;9.60;99.90;;;;;;5093318;28;20417;-85
2021/12/15 07:07:40;;;;;;;74.07;28.10;;;9.60;99.90;;;;;;5093050;28;20201;-86
2021/12/15 07:10:08;;;;;;;72.37;29.17;;;9.60;99.90;;;;;;5093648;28;20409;-87
2021/12/15 07:12:34;;;;;;;68.87;29.23;;;9.60;99.90;;;;;;5093403;28;20563;-88
2021/12/15 07:14:59;;;;;;;64.20;26.50;;;9.70;99.90;;;;;;5092414;28;20505;-87
2021/12/15 07:17:25;;;;;;;65.47;27.57;;;9.70;99.90;;;;;;5093565;28;20663;-87
2021/12/15 07:20:06;;;;;;;65.10;25.53;;;9.70;99.90;;;;;;5092994;28;20168;-86
2021/12/15 07:22:51;;;;;;;66.73;28.80;;;9.70;99.90;;;;;;5093404;28;20420;-86
2021/12/15 07:25:17;;;;;;;68.53;26.33;;;9.70;99.90;;;;;;5093698;28;20403;-85
2021/12/15 07:27:43;;;;;;;62.00;26.50;;;9.70;99.90;;;;;;5093388;28;20762;-85
2021/12/15 07:30:10;;;;;;;61.33;25.87;;;9.70;99.90;;;;;;5093416;28;20409;-87
2021/12/15 07:32:37;;;;;;;68.20;26.80;;;9.70;99.90;;;;;;5093592;28;20674;-85
2021/12/15 07:35:05;;;;;;;56.23;26.17;;;9.70;99.90;;;;;;5092786;28;20426;-86
2021/12/15 07:37:32;;;;;;;62.30;26.27;;;9.70;99.90;;;;;;5092727;28;20473;-86
2021/12/15 07:39:59;;;;;;;56.50;26.43;;;9.80;99.90;;;;;;5093352;28;20418;-87
2021/12/15 07:42:43;;;;;;;61.57;26.27;;;9.80;99.90;;;;;;5093215;28;20425;-85
2021/12/15 07:45:10;;;;;;;64.57;27.93;;;9.80;99.90;;;;;;5092224;28;20420;-87
2021/12/15 07:47:37;;;;;;;58.47;24.47;;;9.80;99.90;;;;;;5093863;28;20414;-89
2021/12/15 07:50:04;;;;;;;59.47;26.80;;;9.80;99.90;;;;;;5097478;28;20459;-87
2021/12/15 07:52:30;;;;;;;57.50;25.30;;;9.80;99.90;;;;;;5096995;28;20410;-88
2021/12/15 07:54:56;;;;;;;54.93;26.57;;;9.90;99.90;;;;;;5097374;28;20422;-85
2021/12/15 07:57:25;;;;;;;46.70;23.60;;;9.90;99.90;;;;;;5097418;28;20197;-86
2021/12/15 07:59:51;;;;;;;53.07;25.40;;;9.90;99.90;;;;;;5097504;28;20883;-85
2021/12/15 08:02:17;;;;;;;47.77;24.87;;;9.90;99.90;;;;;;5097278;28;20399;-87
2021/12/15 08:04:43;;;;;;;47.70;22.93;;;9.90;99.90;;;;;;5097132;28;20403;-86
2021/12/15 08:07:09;;;;;;;55.87;25.13;;;9.90;99.90;;;;;;5096796;28;20172;-87
2021/12/15 08:09:35;;;;;;;51.23;24.60;;;9.90;99.90;;;;;;5097716;28;20417;-88
2021/12/15 08:12:00;;;;;;;44.50;24.60;;;9.90;99.90;;;;;;5096314;28;20255;-88
2021/12/15 08:14:26;;;;;;;45.27;22.20;;;9.90;99.90;;;;;;5096151;28;20898;-90
2021/12/15 08:16:52;;;;;;;43.63;24.17;;;10.00;99.90;;;;;;5095623;28;20555;-89
2021/12/15 08:19:19;;;;;;;45.97;24.47;;;9.90;99.90;;;;;;5095171;28;20169;-87
2021/12/15 08:21:45;;;;;;;45.00;24.50;;;10.00;99.90;;;;;;5096210;28;20414;-88
2021/12/15 08:24:11;;;;;;;42.23;21.30;;;10.00;99.90;;;;;;5096980;28;20418;-80
2021/12/15 08:26:37;;;;;;;42.40;22.20;;;10.00;99.90;;;;;;5096439;28;20815;-80
2021/12/15 08:29:04;;;;;;;47.27;25.77;;;10.00;99.90;;;;;;5096046;28;20711;-79
2021/12/15 08:31:29;;;;;;;47.33;24.70;;;10.10;99.90;;;;;;5095551;28;20407;-79
2021/12/15 08:33:55;;;;;;;43.10;23.17;;;10.10;99.90;;;;;;5095762;28;20509;-79
2021/12/15 08:36:21;;;;;;;40.63;21.73;;;10.10;99.90;;;;;;5096076;28;20169;-79
2021/12/15 08:38:48;;;;;;;41.07;22.47;;;10.10;99.90;;;;;;5096504;28;20695;-79
2021/12/15 08:41:23;;;;;;;38.53;20.40;;;10.10;99.90;;;;;;5096388;28;20399;-80
2021/12/15 08:43:49;;;;;;;36.80;20.10;;;10.10;99.90;;;;;;5096254;28;20927;-80
2021/12/15 08:46:19;;;;;;;40.80;21.10;;;10.10;99.90;;;;;;5096246;28;20418;-79
2021/12/15 08:48:46;;;;;;;40.30;21.57;;;10.10;99.90;;;;;;5096353;28;20184;-80
2021/12/15 08:51:14;;;;;;;40.40;20.80;;;10.10;99.90;;;;;;5096075;28;20407;-80
2021/12/15 08:53:42;;;;;;;38.60;22.90;;;10.10;99.90;;;;;;5096131;28;20898;-79
2021/12/15 08:56:09;;;;;;;42.30;21.40;;;10.10;99.90;;;;;;5096259;28;20410;-79
2021/12/15 08:58:35;;;;;;;41.40;21.80;;;10.10;99.90;;;;;;5096083;28;20415;-80
2021/12/15 09:01:02;;;;;;;47.83;26.23;;;10.10;99.90;;;;;;5094779;28;20443;-80
2021/12/15 09:03:29;;;;;;;37.73;21.43;;;10.10;99.90;;;;;;5095990;28;20488;-79
2021/12/15 09:05:56;;;;;;;43.77;23.03;;;10.10;99.90;;;;;;5095701;28;20755;-79
2021/12/15 09:08:24;;;;;;;38.47;21.63;;;10.10;99.90;;;;;;5095846;28;20974;-80
2021/12/15 09:10:51;;;;;;;45.57;22.50;;;10.10;99.90;;;;;;5095822;28;20505;-79
2021/12/15 09:13:17;;;;;;;41.33;19.87;;;10.10;99.90;;;;;;5095714;28;20569;-79
2021/12/15 09:15:43;;;;;;;38.53;19.80;;;10.10;99.90;;;;;;5095805;28;20491;-79
2021/12/15 09:18:10;;;;;;;40.87;22.63;;;10.20;99.90;;;;;;5095778;28;20176;-79
2021/12/15 09:20:40;;;;;;;38.10;20.07;;;10.20;99.90;;;;;;5095462;28;20788;-80
2021/12/15 09:23:08;;;;;;;42.27;23.77;;;10.20;99.90;;;;;;5095656;28;20430;-79
2021/12/15 09:25:36;;;;;;;41.53;22.50;;;10.20;99.90;;;;;;5095509;28;20422;-80
2021/12/15 09:28:02;;;;;;;38.43;23.27;;;10.30;99.90;;;;;;5095556;28;20470;-79
2021/12/15 09:30:30;;;;;;;39.43;22.40;;;10.30;99.90;;;;;;5095536;28;20781;-80
2021/12/15 09:32:57;;;;;;;41.70;21.80;;;10.30;99.90;;;;;;5095576;28;20465;-78
2021/12/15 09:35:25;;;;;;;38.90;21.43;;;10.30;99.90;;;;;;5094804;28;21015;-80
2021/12/15 09:37:52;;;;;;;43.20;22.20;;;10.30;99.90;;;;;;5094940;28;20466;-80
2021/12/15 09:40:20;;;;;;;40.47;22.60;;;10.30;99.90;;;;;;5095249;28;20476;-79
2021/12/15 09:42:47;;;;;;;39.20;22.90;;;10.30;99.90;;;;;;5093955;28;20429;-79
2021/12/15 09:45:28;;;;;;;40.60;22.00;;;10.30;99.90;;;;;;5094210;28;20470;-80
2021/12/15 10:17:42;;;;;;;48.80;25.60;;;10.30;99.90;;;;;;5092813;28;20448;-79
2021/12/15 10:20:13;;;;;;;34.00;21.90;;;10.50;99.90;;;;;;5094161;28;20915;-79
2021/12/15 10:22:46;;;;;;;38.10;22.30;;;10.90;99.90;;;;;;5093751;28;20466;-79
2021/12/15 10:25:21;;;;;;;40.57;24.70;;;10.60;99.90;;;;;;5084989;28;20438;-79
2021/12/15 10:27:51;;;;;;;46.27;25.20;;;10.50;99.90;;;;;;5074203;28;20411;-79
2021/12/15 10:30:25;;;;;;;37.57;23.13;;;10.50;99.90;;;;;;5074113;28;20884;-80
2021/12/15 10:32:57;;;;;;;43.63;23.83;;;10.40;99.90;;;;;;5072765;28;20455;-79
2021/12/15 10:35:27;;;;;;;42.17;22.93;;;10.40;99.90;;;;;;5081847;28;20446;-79
2021/12/15 10:38:20;;;;;;;38.47;22.50;;;10.40;99.90;;;;;;5080868;28;20458;-80
2021/12/15 10:41:09;;;;;;;41.17;23.33;;;10.40;99.90;;;;;;5086136;28;20430;-80
2021/12/15 10:43:43;;;;;;;38.80;23.00;;;10.40;99.90;;;;;;5092043;28;20504;-79
2021/12/15 10:46:19;;;;;;;36.73;21.17;;;10.40;99.90;;;;;;5073847;28;20485;-79
2021/12/15 10:48:58;;;;;;;44.47;23.10;;;10.40;99.90;;;;;;5073492;28;20439;-79
2021/12/15 10:51:44;;;;;;;37.90;22.43;;;10.40;99.90;;;;;;5073614;28;20403;-79
2021/12/15 10:54:23;;;;;;;50.33;28.20;;;10.40;99.90;;;;;;5073395;28;20459;-80
2021/12/15 10:57:03;;;;;;;49.17;26.60;;;10.40;99.90;;;;;;5072616;28;20816;-80
2021/12/15 10:59:34;;;;;;;46.30;23.73;;;10.40;99.90;;;;;;5073504;28;20780;-80
2021/12/15 11:02:06;;;;;;;40.40;23.43;;;10.50;99.90;;;;;;5073666;28;20422;-79
2021/12/15 11:04:34;;;;;;;44.80;24.97;;;10.50;99.90;;;;;;5073612;28;20437;-79
2021/12/15 11:07:25;;;;;;;40.73;25.23;;;10.50;99.90;;;;;;5073144;28;20417;-80
2021/12/15 11:10:10;;;;;;;42.10;25.20;;;10.50;99.90;;;;;;5073502;28;20416;-79
2021/12/15 11:12:41;;;;;;;45.03;23.00;;;10.50;99.90;;;;;;5073344;28;20415;-79
2021/12/15 11:15:27;;;;;;;42.90;24.37;;;10.50;99.90;;;;;;5072612;28;20420;-79
2021/12/15 11:18:21;;;;;;;45.47;24.27;;;10.50;99.90;;;;;;5071385;28;20396;-79
2021/12/15 11:20:51;;;;;;;42.93;24.23;;;10.50;99.90;;;;;;5071566;28;20488;-79
2021/12/15 11:23:21;;;;;;;40.87;22.97;;;10.50;99.90;;;;;;5072004;28;20826;-79
2021/12/15 11:25:51;;;;;;;36.00;23.33;;;10.50;99.90;;;;;;5073130;28;20462;-79
2021/12/15 11:28:25;;;;;;;40.20;24.37;;;10.50;99.90;;;;;;5072796;28;20432;-79
2021/12/15 11:31:03;;;;;;;46.97;25.17;;;10.50;99.90;;;;;;5073035;28;20432;-79
2021/12/15 11:33:46;;;;;;;43.03;25.00;;;10.50;99.90;;;;;;5079163;28;20462;-80
2021/12/15 11:36:17;;;;;;;37.33;22.10;;;10.50;99.90;;;;;;5085931;28;20456;-80
2021/12/15 11:38:45;;;;;;;52.77;25.77;;;10.50;99.90;;;;;;5091413;28;20458;-80
2021/12/15 11:41:16;;;;;;;47.43;25.00;;;10.50;99.90;;;;;;5091299;28;20454;-79
2021/12/15 11:43:46;;;;;;;45.63;26.80;;;10.50;99.90;;;;;;5091392;28;20902;-79
2021/12/15 11:46:17;;;;;;;42.30;26.67;;;10.60;99.90;;;;;;5092779;28;20451;-78
2021/12/15 11:48:44;;;;;;;42.17;25.27;;;10.60;99.90;;;;;;5092804;28;20518;-80
2021/12/15 11:51:10;;;;;;;43.23;25.30;;;10.60;99.90;;;;;;5092238;28;20457;-80
2021/12/15 11:53:37;;;;;;;41.13;24.80;;;10.60;99.90;;;;;;5092358;28;20458;-80
2021/12/15 11:56:17;;;;;;;45.83;25.33;;;10.60;99.90;;;;;;5092430;28;20507;-80
2021/12/15 11:58:44;;;;;;;38.33;23.20;;;10.70;99.90;;;;;;5092466;28;20408;-80
2021/12/15 12:01:30;;;;;;;45.50;25.93;;;10.70;99.90;;;;;;5092360;28;20460;-79
2021/12/15 12:04:11;;;;;;;39.07;25.30;;;10.70;99.90;;;;;;5091010;28;20490;-81
2021/12/15 12:06:36;;;;;;;43.30;24.80;;;10.70;99.90;;;;;;5091919;28;20866;-79
2021/12/15 12:09:02;;;;;;;45.20;23.90;;;10.70;99.90;;;;;;5092713;28;20406;-79
2021/12/15 12:11:29;;;;;;;43.33;24.63;;;10.70;99.90;;;;;;5092860;28;20216;-79
2021/12/15 12:13:59;;;;;;;41.53;24.47;;;10.70;99.90;;;;;;5092781;28;20208;-80
2021/12/15 12:16:25;;;;;;;42.97;25.17;;;10.70;99.90;;;;;;5092682;28;20452;-80
2021/12/15 12:18:52;;;;;;;40.30;24.53;;;10.60;99.90;;;;;;5092678;28;20440;-80
2021/12/15 12:21:18;;;;;;;41.80;24.93;;;10.70;99.90;;;;;;5092397;28;20412;-79
2021/12/15 12:23:46;;;;;;;36.43;22.97;;;10.70;99.90;;;;;;5092861;28;20428;-80
2021/12/15 12:26:12;;;;;;;48.97;25.07;;;10.70;99.90;;;;;;5092748;28;20422;-79
2021/12/15 12:28:41;;;;;;;37.40;23.00;;;10.70;99.90;;;;;;5092707;28;20922;-79
2021/12/15 12:31:11;;;;;;;42.00;24.70;;;10.60;99.90;;;;;;5092667;28;20501;-80
2021/12/15 12:33:37;;;;;;;39.03;23.70;;;10.70;99.90;;;;;;5092630;28;20469;-79
2021/12/15 12:36:29;;;;;;;42.80;24.77;;;10.70;99.90;;;;;;5095309;28;20430;-79
2021/12/15 12:39:00;;;;;;;42.07;24.10;;;10.80;99.90;;;;;;5096525;28;20235;-80
2021/12/15 12:41:36;;;;;;;40.57;21.40;;;10.80;99.90;;;;;;5096499;28;20399;-79
2021/12/15 12:44:04;;;;;;;40.40;23.37;;;10.80;99.90;;;;;;5096250;28;20414;-80
2021/12/15 12:46:43;;;;;;;35.43;24.63;;;10.80;99.90;;;;;;5094829;28;20412;-79
2021/12/15 13:00:48;;;;;;;40.77;24.90;;;10.70;99.90;;;;;;5096478;28;20437;-80
2021/12/15 13:03:18;;;;;;;38.10;22.03;;;10.60;99.90;;;;;;5095984;28;20472;-80
2021/12/15 13:05:48;;;;;;;37.07;21.53;;;10.60;99.90;;;;;;5095611;28;20890;-80
2021/12/15 13:08:34;;;;;;;38.57;20.97;;;10.60;99.90;;;;;;5094436;28;21314;-80
2021/12/15 13:11:22;;;;;;;39.80;22.97;;;10.60;99.90;;;;;;5095904;28;20870;-80
2021/12/15 13:14:08;;;;;;;38.27;22.87;;;10.60;99.90;;;;;;5095749;28;20474;-80
2021/12/15 13:16:50;;;;;;;38.07;22.50;;;10.60;99.90;;;;;;5095604;28;20916;-80
2021/12/15 13:19:28;;;;;;;32.27;21.80;;;10.60;99.90;;;;;;5095638;28;20423;-80
2021/12/15 13:22:20;;;;;;;30.80;20.60;;;10.50;99.90;;;;;;5095756;28;20504;-79
2021/12/15 13:30:37;;;;;;;34.67;20.00;;;10.50;99.90;;;;;;5095438;28;20405;-80
2021/12/15 13:33:11;;;;;;;32.47;18.80;;;10.50;99.90;;;;;;5095384;28;20481;-79
2021/12/15 13:35:43;;;;;;;34.47;19.10;;;10.50;99.90;;;;;;5094910;28;20415;-79
2021/12/15 13:38:10;;;;;;;39.30;21.80;;;10.50;99.90;;;;;;5095098;28;20446;-80
2021/12/15 13:40:53;;;;;;;37.47;20.00;;;10.40;99.90;;;;;;5095282;28;20430;-82
2021/12/15 13:43:56;;;;;;;34.30;20.70;;;10.40;99.90;;;;;;5091325;28;20503;-80
2021/12/15 13:46:27;;;;;;;35.90;19.23;;;10.40;99.90;;;;;;5093381;28;20759;-80
2021/12/15 13:49:23;;;;;;;31.40;19.00;;;10.40;99.90;;;;;;5087827;28;20428;-80
2021/12/15 13:51:57;;;;;;;31.30;19.03;;;10.30;99.90;;;;;;5074746;28;20411;-80
2021/12/15 13:54:32;;;;;;;36.67;19.80;;;10.40;99.90;;;;;;5073275;28;21005;-80
2021/12/15 13:57:00;;;;;;;34.40;20.40;;;10.30;99.90;;;;;;5074571;28;20416;-81
2021/12/15 13:59:46;;;;;;;29.80;19.60;;;10.40;99.90;;;;;;5074588;28;20457;-80
2021/12/15 14:02:37;;;;;;;36.20;20.87;;;10.30;99.90;;;;;;5074261;28;20404;-80
2021/12/15 14:05:15;;;;;;;31.20;19.20;;;10.30;99.90;;;;;;5074953;28;20418;-80
2021/12/15 14:07:44;;;;;;;27.50;17.27;;;10.30;99.90;;;;;;5074333;28;20813;-80
2021/12/15 14:10:10;;;;;;;31.27;18.50;;;10.30;99.90;;;;;;5088869;28;20869;-80
2021/12/15 14:12:45;;;;;;;29.27;18.00;;;10.30;99.90;;;;;;5093337;28;20435;-80
2021/12/15 14:15:34;;;;;;;30.10;17.17;;;10.30;99.90;;;;;;5094426;28;20293;-80
2021/12/15 14:18:04;;;;;;;28.73;15.47;;;10.30;99.90;;;;;;5094323;28;20403;-81